sensor_id;sensor_type;location;lat;lon;timestamp;temperature;humidity
42833;DHT22;64089;51.478;5.692;2024-01-07T00:01:15;2.30;99.90
42833;DHT22;64089;51.478;5.692;2024-01-07T00:03:41;2.30;99.90
42833;DHT22;64089;51.478;5.692;2024-01-07T00:06:08;2.30;99.90
42833;DHT22;64089;51.478;5.692;2024-01-07T00:08:35;2.30;99.90
42833;DHT22;64089;51.478;5.692;2024-01-07T00:11:00;2.30;99.90
42833;DHT22;64089;51.478;5.692;2024-01-07T00:13:26;2.30;99.90
42833;DHT22;64089;51.478;5.692;2024-01-07T00:15:51;2.40;99.90
42833;DHT22;64089;51.478;5.692;2024-01-07T00:18:19;2.40;99.90
42833;DHT22;64089;51.478;5.692;2024-01-07T00:20:45;2.30;99.90
42833;DHT22;64089;51.478;5.692;2024-01-07T00:23:10;2.30;99.90
42833;DHT22;64089;51.478;5.692;2024-01-07T00:25:36;2.40;99.90
42833;DHT22;64089;51.478;5.692;2024-01-07T00:28:01;2.40;99.90
42833;DHT22;64089;51.478;5.692;2024-01-07T00:30:27;2.40;99.90
42833;DHT22;64089;51.478;5.692;2024-01-07T00:32:53;2.40;99.90
42833;DHT22;64089;51.478;5.692;2024-01-07T00:35:18;2.40;99.90
42833;DHT22;64089;51.478;5.692;2024-01-07T00:37:44;2.40;99.90
42833;DHT22;64089;51.478;5.692;2024-01-07T00:40:10;2.40;99.90
42833;DHT22;64089;51.478;5.692;2024-01-07T00:42:35;2.40;99.90
42833;DHT22;64089;51.478;5.692;2024-01-07T00:45:02;2.50;99.90
42833;DHT22;64089;51.478;5.692;2024-01-07T00:47:28;2.50;99.90
42833;DHT22;64089;51.478;5.692;2024-01-07T00:49:54;2.40;99.90
42833;DHT22;64089;51.478;5.692;2024-01-07T00:52:19;2.40;99.90
42833;DHT22;64089;51.478;5.692;2024-01-07T00:54:46;2.40;99.90
42833;DHT22;64089;51.478;5.692;2024-01-07T00:57:12;2.40;99.90
42833;DHT22;64089;51.478;5.692;2024-01-07T00:59:40;2.40;99.90
42833;DHT22;64089;51.478;5.692;2024-01-07T01:02:05;2.40;99.90
42833;DHT22;64089;51.478;5.692;2024-01-07T01:04:31;2.40;99.90
42833;DHT22;64089;51.478;5.692;2024-01-07T01:06:57;2.40;99.90
42833;DHT22;64089;51.478;5.692;2024-01-07T01:09:22;2.40;99.90
42833;DHT22;64089;51.478;5.692;2024-01-07T01:11:48;2.40;99.90
42833;DHT22;64089;51.478;5.692;2024-01-07T01:14:15;2.40;99.90
42833;DHT22;64089;51.478;5.692;2024-01-07T01:16:40;2.40;99.90
42833;DHT22;64089;51.478;5.692;2024-01-07T01:19:06;2.40;99.90
42833;DHT22;64089;51.478;5.692;2024-01-07T01:21:32;2.40;99.90
42833;DHT22;64089;51.478;5.692;2024-01-07T01:23:57;2.40;99.90
42833;DHT22;64089;51.478;5.692;2024-01-07T01:26:23;2.40;99.90
42833;DHT22;64089;51.478;5.692;2024-01-07T01:28:49;2.40;99.90
42833;DHT22;64089;51.478;5.692;2024-01-07T01:31:14;2.40;99.90
42833;DHT22;64089;51.478;5.692;2024-01-07T01:33:40;2.40;99.90
42833;DHT22;64089;51.478;5.692;2024-01-07T01:36:06;2.40;99.90
42833;DHT22;64089;51.478;5.692;2024-01-07T01:38:32;2.40;99.90
42833;DHT22;64089;51.478;5.692;2024-01-07T01:40:58;2.40;99.90
42833;DHT22;64089;51.478;5.692;2024-01-07T01:43:28;2.40;99.90
42833;DHT22;64089;51.478;5.692;2024-01-07T01:45:54;2.40;99.90
42833;DHT22;64089;51.478;5.692;2024-01-07T01:48:22;2.40;99.90
42833;DHT22;64089;51.478;5.692;2024-01-07T01:50:47;2.50;99.90
42833;DHT22;64089;51.478;5.692;2024-01-07T01:53:14;2.50;99.90
42833;DHT22;64089;51.478;5.692;2024-01-07T01:55:40;2.50;99.90
42833;DHT22;64089;51.478;5.692;2024-01-07T01:58:09;2.40;99.90
42833;DHT22;64089;51.478;5.692;2024-01-07T02:00:35;2.30;99.90
42833;DHT22;64089;51.478;5.692;2024-01-07T02:03:00;2.40;99.90
42833;DHT22;64089;51.478;5.692;2024-01-07T02:05:26;2.30;99.90
42833;DHT22;64089;51.478;5.692;2024-01-07T02:07:53;2.30;99.90
42833;DHT22;64089;51.478;5.692;2024-01-07T02:10:18;2.30;99.90
42833;DHT22;64089;51.478;5.692;2024-01-07T02:12:44;2.20;99.90
42833;DHT22;64089;51.478;5.692;2024-01-07T02:15:10;2.20;99.90
42833;DHT22;64089;51.478;5.692;2024-01-07T02:17:35;2.20;99.90
42833;DHT22;64089;51.478;5.692;2024-01-07T02:20:01;2.30;99.90
42833;DHT22;64089;51.478;5.692;2024-01-07T02:22:26;2.30;99.90
42833;DHT22;64089;51.478;5.692;2024-01-07T02:24:52;2.30;99.90
42833;DHT22;64089;51.478;5.692;2024-01-07T02:27:17;2.30;99.90
42833;DHT22;64089;51.478;5.692;2024-01-07T02:29:43;2.20;99.90
42833;DHT22;64089;51.478;5.692;2024-01-07T02:32:08;2.20;99.90
42833;DHT22;64089;51.478;5.692;2024-01-07T02:34:34;2.20;99.90
42833;DHT22;64089;51.478;5.692;2024-01-07T02:37:00;2.20;99.90
42833;DHT22;64089;51.478;5.692;2024-01-07T02:39:25;2.20;99.90
42833;DHT22;64089;51.478;5.692;2024-01-07T02:41:51;2.20;99.90
42833;DHT22;64089;51.478;5.692;2024-01-07T02:44:16;2.30;99.90
42833;DHT22;64089;51.478;5.692;2024-01-07T02:46:42;2.20;99.90
42833;DHT22;64089;51.478;5.692;2024-01-07T02:49:07;2.30;99.90
42833;DHT22;64089;51.478;5.692;2024-01-07T02:51:33;2.20;99.90
42833;DHT22;64089;51.478;5.692;2024-01-07T02:53:59;2.20;99.90
42833;DHT22;64089;51.478;5.692;2024-01-07T02:56:24;2.20;99.90
42833;DHT22;64089;51.478;5.692;2024-01-07T02:58:50;2.30;99.90
42833;DHT22;64089;51.478;5.692;2024-01-07T03:01:15;2.30;99.90
42833;DHT22;64089;51.478;5.692;2024-01-07T03:03:41;2.20;99.90
42833;DHT22;64089;51.478;5.692;2024-01-07T03:06:06;2.20;99.90
42833;DHT22;64089;51.478;5.692;2024-01-07T03:08:32;2.20;99.90
42833;DHT22;64089;51.478;5.692;2024-01-07T03:10:58;2.20;99.90
42833;DHT22;64089;51.478;5.692;2024-01-07T03:13:23;2.20;99.90
42833;DHT22;64089;51.478;5.692;2024-01-07T03:15:49;2.30;99.90
42833;DHT22;64089;51.478;5.692;2024-01-07T03:18:14;2.30;99.90
42833;DHT22;64089;51.478;5.692;2024-01-07T03:20:40;2.30;99.90
42833;DHT22;64089;51.478;5.692;2024-01-07T03:23:06;2.20;99.90
42833;DHT22;64089;51.478;5.692;2024-01-07T03:25:31;2.20;99.90
42833;DHT22;64089;51.478;5.692;2024-01-07T03:27:57;2.20;99.90
42833;DHT22;64089;51.478;5.692;2024-01-07T03:30:22;2.20;99.90
42833;DHT22;64089;51.478;5.692;2024-01-07T03:32:48;2.20;99.90
42833;DHT22;64089;51.478;5.692;2024-01-07T03:35:14;2.20;99.90
42833;DHT22;64089;51.478;5.692;2024-01-07T03:37:40;2.20;99.90
42833;DHT22;64089;51.478;5.692;2024-01-07T03:40:12;2.20;99.90
42833;DHT22;64089;51.478;5.692;2024-01-07T03:42:38;2.10;99.90
42833;DHT22;64089;51.478;5.692;2024-01-07T03:45:04;2.20;99.90
42833;DHT22;64089;51.478;5.692;2024-01-07T03:47:30;2.20;99.90
42833;DHT22;64089;51.478;5.692;2024-01-07T03:49:57;2.20;99.90
42833;DHT22;64089;51.478;5.692;2024-01-07T03:52:22;2.20;99.90
42833;DHT22;64089;51.478;5.692;2024-01-07T03:54:48;2.10;99.90
42833;DHT22;64089;51.478;5.692;2024-01-07T03:57:13;2.10;99.90
42833;DHT22;64089;51.478;5.692;2024-01-07T03:59:39;2.00;99.90
42833;DHT22;64089;51.478;5.692;2024-01-07T04:02:04;2.00;99.90
42833;DHT22;64089;51.478;5.692;2024-01-07T04:04:30;2.00;99.90
42833;DHT22;64089;51.478;5.692;2024-01-07T04:06:56;2.00;99.90
42833;DHT22;64089;51.478;5.692;2024-01-07T04:09:22;2.00;99.90
42833;DHT22;64089;51.478;5.692;2024-01-07T04:11:47;1.90;99.90
42833;DHT22;64089;51.478;5.692;2024-01-07T04:14:15;1.90;99.90
42833;DHT22;64089;51.478;5.692;2024-01-07T04:16:40;1.90;99.90
42833;DHT22;64089;51.478;5.692;2024-01-07T04:19:06;1.90;99.90
42833;DHT22;64089;51.478;5.692;2024-01-07T04:21:32;1.90;99.90
42833;DHT22;64089;51.478;5.692;2024-01-07T04:23:57;1.90;99.90
42833;DHT22;64089;51.478;5.692;2024-01-07T04:26:23;1.90;99.90
42833;DHT22;64089;51.478;5.692;2024-01-07T04:28:48;1.90;99.90
42833;DHT22;64089;51.478;5.692;2024-01-07T04:31:14;1.90;99.90
42833;DHT22;64089;51.478;5.692;2024-01-07T04:33:40;1.90;99.90
42833;DHT22;64089;51.478;5.692;2024-01-07T04:36:06;1.90;99.90
42833;DHT22;64089;51.478;5.692;2024-01-07T04:38:31;2.00;99.90
42833;DHT22;64089;51.478;5.692;2024-01-07T04:40:57;2.00;99.90
42833;DHT22;64089;51.478;5.692;2024-01-07T04:43:22;1.90;99.90
42833;DHT22;64089;51.478;5.692;2024-01-07T04:45:48;2.00;99.90
42833;DHT22;64089;51.478;5.692;2024-01-07T04:48:14;2.00;99.90
42833;DHT22;64089;51.478;5.692;2024-01-07T04:50:40;2.00;99.90
42833;DHT22;64089;51.478;5.692;2024-01-07T04:53:08;2.00;99.90
42833;DHT22;64089;51.478;5.692;2024-01-07T04:55:33;1.90;99.90
42833;DHT22;64089;51.478;5.692;2024-01-07T04:57:59;2.00;99.90
42833;DHT22;64089;51.478;5.692;2024-01-07T05:00:25;1.90;99.90
42833;DHT22;64089;51.478;5.692;2024-01-07T05:02:50;1.90;99.90
42833;DHT22;64089;51.478;5.692;2024-01-07T05:05:16;1.90;99.90
42833;DHT22;64089;51.478;5.692;2024-01-07T05:07:41;1.90;99.90
42833;DHT22;64089;51.478;5.692;2024-01-07T05:10:07;1.90;99.90
42833;DHT22;64089;51.478;5.692;2024-01-07T05:12:33;2.00;99.90
42833;DHT22;64089;51.478;5.692;2024-01-07T05:14:59;1.90;99.90
42833;DHT22;64089;51.478;5.692;2024-01-07T05:17:24;1.90;99.90
42833;DHT22;64089;51.478;5.692;2024-01-07T05:19:50;1.90;99.90
42833;DHT22;64089;51.478;5.692;2024-01-07T05:22:15;1.80;99.90
42833;DHT22;64089;51.478;5.692;2024-01-07T05:24:41;1.80;99.90
42833;DHT22;64089;51.478;5.692;2024-01-07T05:27:07;1.80;99.90
42833;DHT22;64089;51.478;5.692;2024-01-07T05:29:32;1.90;99.90
42833;DHT22;64089;51.478;5.692;2024-01-07T05:32:01;1.80;99.90
42833;DHT22;64089;51.478;5.692;2024-01-07T05:34:28;1.80;99.90
42833;DHT22;64089;51.478;5.692;2024-01-07T05:36:54;1.80;99.90
42833;DHT22;64089;51.478;5.692;2024-01-07T05:39:19;1.80;99.90
42833;DHT22;64089;51.478;5.692;2024-01-07T05:41:45;1.80;99.90
42833;DHT22;64089;51.478;5.692;2024-01-07T05:44:11;1.90;99.90
42833;DHT22;64089;51.478;5.692;2024-01-07T05:46:40;1.80;99.90
42833;DHT22;64089;51.478;5.692;2024-01-07T05:49:08;1.90;99.90
42833;DHT22;64089;51.478;5.692;2024-01-07T05:51:33;1.90;99.90
42833;DHT22;64089;51.478;5.692;2024-01-07T05:53:59;1.90;99.90
42833;DHT22;64089;51.478;5.692;2024-01-07T05:56:25;1.90;99.90
42833;DHT22;64089;51.478;5.692;2024-01-07T05:58:51;1.90;99.90
42833;DHT22;64089;51.478;5.692;2024-01-07T06:01:20;1.90;99.90
42833;DHT22;64089;51.478;5.692;2024-01-07T06:03:46;1.80;99.90
42833;DHT22;64089;51.478;5.692;2024-01-07T06:06:13;1.80;99.90
42833;DHT22;64089;51.478;5.692;2024-01-07T06:08:42;1.80;99.90
42833;DHT22;64089;51.478;5.692;2024-01-07T06:11:08;1.80;99.90
42833;DHT22;64089;51.478;5.692;2024-01-07T06:13:34;1.80;99.90
42833;DHT22;64089;51.478;5.692;2024-01-07T06:15:59;1.90;99.90
42833;DHT22;64089;51.478;5.692;2024-01-07T06:18:25;1.80;99.90
42833;DHT22;64089;51.478;5.692;2024-01-07T06:20:50;1.80;99.90
42833;DHT22;64089;51.478;5.692;2024-01-07T06:23:16;1.80;99.90
42833;DHT22;64089;51.478;5.692;2024-01-07T06:25:41;1.80;99.90
42833;DHT22;64089;51.478;5.692;2024-01-07T06:28:08;1.90;99.90
42833;DHT22;64089;51.478;5.692;2024-01-07T06:30:35;1.90;99.90
42833;DHT22;64089;51.478;5.692;2024-01-07T06:33:01;1.90;99.90
42833;DHT22;64089;51.478;5.692;2024-01-07T06:35:26;1.80;99.90
42833;DHT22;64089;51.478;5.692;2024-01-07T06:37:52;1.80;99.90
42833;DHT22;64089;51.478;5.692;2024-01-07T06:40:17;1.80;99.90
42833;DHT22;64089;51.478;5.692;2024-01-07T06:42:44;1.80;99.90
42833;DHT22;64089;51.478;5.692;2024-01-07T06:45:10;1.80;99.90
42833;DHT22;64089;51.478;5.692;2024-01-07T06:47:35;1.80;99.90
42833;DHT22;64089;51.478;5.692;2024-01-07T06:50:01;1.80;99.90
42833;DHT22;64089;51.478;5.692;2024-01-07T06:52:27;1.80;99.90
42833;DHT22;64089;51.478;5.692;2024-01-07T06:54:52;1.70;99.90
42833;DHT22;64089;51.478;5.692;2024-01-07T06:57:18;1.80;99.90
42833;DHT22;64089;51.478;5.692;2024-01-07T06:59:43;1.80;99.90
42833;DHT22;64089;51.478;5.692;2024-01-07T07:02:09;1.70;99.90
42833;DHT22;64089;51.478;5.692;2024-01-07T07:04:34;1.80;99.90
42833;DHT22;64089;51.478;5.692;2024-01-07T07:07:00;1.70;99.90
42833;DHT22;64089;51.478;5.692;2024-01-07T07:09:25;1.70;99.90
42833;DHT22;64089;51.478;5.692;2024-01-07T07:11:51;1.70;99.90
42833;DHT22;64089;51.478;5.692;2024-01-07T07:14:17;1.70;99.90
42833;DHT22;64089;51.478;5.692;2024-01-07T07:16:42;1.70;99.90
42833;DHT22;64089;51.478;5.692;2024-01-07T07:19:08;1.70;99.90
42833;DHT22;64089;51.478;5.692;2024-01-07T07:21:33;1.70;99.90
42833;DHT22;64089;51.478;5.692;2024-01-07T07:23:59;1.60;99.90
42833;DHT22;64089;51.478;5.692;2024-01-07T07:26:24;1.60;99.90
42833;DHT22;64089;51.478;5.692;2024-01-07T07:28:50;1.60;99.90
42833;DHT22;64089;51.478;5.692;2024-01-07T07:31:15;1.60;99.90
42833;DHT22;64089;51.478;5.692;2024-01-07T07:33:41;1.60;99.90
42833;DHT22;64089;51.478;5.692;2024-01-07T07:36:07;1.60;99.90
42833;DHT22;64089;51.478;5.692;2024-01-07T07:38:33;1.60;99.90
42833;DHT22;64089;51.478;5.692;2024-01-07T07:40:59;1.60;99.90
42833;DHT22;64089;51.478;5.692;2024-01-07T07:43:25;1.50;99.90
42833;DHT22;64089;51.478;5.692;2024-01-07T07:45:51;1.60;99.90
42833;DHT22;64089;51.478;5.692;2024-01-07T07:48:18;1.60;99.90
42833;DHT22;64089;51.478;5.692;2024-01-07T07:50:43;1.60;99.90
42833;DHT22;64089;51.478;5.692;2024-01-07T07:53:09;1.50;99.90
42833;DHT22;64089;51.478;5.692;2024-01-07T07:55:34;1.50;99.90
42833;DHT22;64089;51.478;5.692;2024-01-07T07:58:00;1.50;99.90
42833;DHT22;64089;51.478;5.692;2024-01-07T08:00:26;1.60;99.90
42833;DHT22;64089;51.478;5.692;2024-01-07T08:02:51;1.60;99.90
42833;DHT22;64089;51.478;5.692;2024-01-07T08:05:17;1.60;99.90
42833;DHT22;64089;51.478;5.692;2024-01-07T08:07:43;1.60;99.90
42833;DHT22;64089;51.478;5.692;2024-01-07T08:10:08;1.60;99.90
42833;DHT22;64089;51.478;5.692;2024-01-07T08:12:34;1.60;99.90
42833;DHT22;64089;51.478;5.692;2024-01-07T08:15:00;1.60;99.90
42833;DHT22;64089;51.478;5.692;2024-01-07T08:17:25;1.60;99.90
42833;DHT22;64089;51.478;5.692;2024-01-07T08:19:51;1.60;99.90
42833;DHT22;64089;51.478;5.692;2024-01-07T08:22:17;1.60;99.90
42833;DHT22;64089;51.478;5.692;2024-01-07T08:24:43;1.60;99.90
42833;DHT22;64089;51.478;5.692;2024-01-07T08:27:09;1.60;99.90
42833;DHT22;64089;51.478;5.692;2024-01-07T08:29:34;1.60;99.90
42833;DHT22;64089;51.478;5.692;2024-01-07T08:32:01;1.60;99.90
42833;DHT22;64089;51.478;5.692;2024-01-07T08:34:26;1.60;99.90
42833;DHT22;64089;51.478;5.692;2024-01-07T08:36:52;1.60;99.90
42833;DHT22;64089;51.478;5.692;2024-01-07T08:39:19;1.60;99.90
42833;DHT22;64089;51.478;5.692;2024-01-07T08:41:45;1.70;99.90
42833;DHT22;64089;51.478;5.692;2024-01-07T08:44:11;1.70;99.90
42833;DHT22;64089;51.478;5.692;2024-01-07T08:46:36;1.70;99.90
42833;DHT22;64089;51.478;5.692;2024-01-07T08:49:02;1.70;99.90
42833;DHT22;64089;51.478;5.692;2024-01-07T08:51:28;1.70;99.90
42833;DHT22;64089;51.478;5.692;2024-01-07T08:53:54;1.70;99.90
42833;DHT22;64089;51.478;5.692;2024-01-07T08:56:20;1.60;99.90
42833;DHT22;64089;51.478;5.692;2024-01-07T08:58:46;1.60;99.90
42833;DHT22;64089;51.478;5.692;2024-01-07T09:01:12;1.60;99.90
42833;DHT22;64089;51.478;5.692;2024-01-07T09:03:40;1.60;99.90
42833;DHT22;64089;51.478;5.692;2024-01-07T09:06:05;1.60;99.90
42833;DHT22;64089;51.478;5.692;2024-01-07T09:08:31;1.50;99.90
42833;DHT22;64089;51.478;5.692;2024-01-07T09:10:57;1.50;99.90
42833;DHT22;64089;51.478;5.692;2024-01-07T09:13:24;1.50;99.90
42833;DHT22;64089;51.478;5.692;2024-01-07T09:15:50;1.50;99.90
42833;DHT22;64089;51.478;5.692;2024-01-07T09:18:16;1.50;99.90
42833;DHT22;64089;51.478;5.692;2024-01-07T09:20:41;1.50;99.90
42833;DHT22;64089;51.478;5.692;2024-01-07T09:23:07;1.50;99.90
42833;DHT22;64089;51.478;5.692;2024-01-07T09:25:32;1.50;99.90
42833;DHT22;64089;51.478;5.692;2024-01-07T09:27:58;1.50;99.90
42833;DHT22;64089;51.478;5.692;2024-01-07T09:30:23;1.50;99.90
42833;DHT22;64089;51.478;5.692;2024-01-07T09:32:49;1.50;99.90
42833;DHT22;64089;51.478;5.692;2024-01-07T09:35:15;1.50;99.90
42833;DHT22;64089;51.478;5.692;2024-01-07T09:37:41;1.60;99.90
42833;DHT22;64089;51.478;5.692;2024-01-07T09:40:07;1.50;99.90
42833;DHT22;64089;51.478;5.692;2024-01-07T09:42:33;1.50;99.90
42833;DHT22;64089;51.478;5.692;2024-01-07T09:45:03;1.40;99.90
42833;DHT22;64089;51.478;5.692;2024-01-07T09:47:30;1.40;99.90
42833;DHT22;64089;51.478;5.692;2024-01-07T09:49:55;1.40;99.90
42833;DHT22;64089;51.478;5.692;2024-01-07T09:52:22;1.40;99.90
42833;DHT22;64089;51.478;5.692;2024-01-07T09:54:51;1.50;99.90
42833;DHT22;64089;51.478;5.692;2024-01-07T09:57:18;1.50;99.90
42833;DHT22;64089;51.478;5.692;2024-01-07T09:59:45;1.50;99.90
42833;DHT22;64089;51.478;5.692;2024-01-07T10:02:12;1.50;99.90
42833;DHT22;64089;51.478;5.692;2024-01-07T10:04:37;1.50;99.90
42833;DHT22;64089;51.478;5.692;2024-01-07T10:07:03;1.50;99.90
42833;DHT22;64089;51.478;5.692;2024-01-07T10:09:34;1.50;99.90
42833;DHT22;64089;51.478;5.692;2024-01-07T10:11:59;1.50;99.90
42833;DHT22;64089;51.478;5.692;2024-01-07T10:14:25;1.50;99.90
42833;DHT22;64089;51.478;5.692;2024-01-07T10:16:54;1.40;99.90
42833;DHT22;64089;51.478;5.692;2024-01-07T10:19:21;1.40;99.90
42833;DHT22;64089;51.478;5.692;2024-01-07T10:22:01;1.40;99.90
42833;DHT22;64089;51.478;5.692;2024-01-07T10:24:35;1.40;99.90
42833;DHT22;64089;51.478;5.692;2024-01-07T10:27:03;1.40;99.90
42833;DHT22;64089;51.478;5.692;2024-01-07T10:29:28;1.50;99.90
42833;DHT22;64089;51.478;5.692;2024-01-07T10:32:00;1.50;99.90
42833;DHT22;64089;51.478;5.692;2024-01-07T10:34:34;1.60;99.90
42833;DHT22;64089;51.478;5.692;2024-01-07T10:37:01;1.50;99.90
42833;DHT22;64089;51.478;5.692;2024-01-07T10:39:28;1.40;99.90
42833;DHT22;64089;51.478;5.692;2024-01-07T10:41:55;1.40;99.90
42833;DHT22;64089;51.478;5.692;2024-01-07T10:44:31;1.40;99.90
42833;DHT22;64089;51.478;5.692;2024-01-07T10:46:57;1.40;99.90
42833;DHT22;64089;51.478;5.692;2024-01-07T10:49:25;1.40;99.90
42833;DHT22;64089;51.478;5.692;2024-01-07T10:52:11;1.40;99.90
42833;DHT22;64089;51.478;5.692;2024-01-07T10:54:39;1.50;99.90
42833;DHT22;64089;51.478;5.692;2024-01-07T10:57:26;1.50;99.90
42833;DHT22;64089;51.478;5.692;2024-01-07T10:59:53;1.40;99.90
42833;DHT22;64089;51.478;5.692;2024-01-07T11:02:21;1.40;99.90
42833;DHT22;64089;51.478;5.692;2024-01-07T11:04:54;1.40;99.90
42833;DHT22;64089;51.478;5.692;2024-01-07T11:10:00;1.50;99.90
42833;DHT22;64089;51.478;5.692;2024-01-07T11:12:29;1.50;99.90
42833;DHT22;64089;51.478;5.692;2024-01-07T11:14:56;1.60;99.90
42833;DHT22;64089;51.478;5.692;2024-01-07T11:20:07;1.50;99.90
42833;DHT22;64089;51.478;5.692;2024-01-07T11:22:36;1.60;99.90
42833;DHT22;64089;51.478;5.692;2024-01-07T11:25:01;1.60;99.90
42833;DHT22;64089;51.478;5.692;2024-01-07T11:27:31;1.60;99.90
42833;DHT22;64089;51.478;5.692;2024-01-07T11:30:17;1.70;99.90
42833;DHT22;64089;51.478;5.692;2024-01-07T11:32:44;1.60;99.90
42833;DHT22;64089;51.478;5.692;2024-01-07T11:35:12;1.60;99.90
42833;DHT22;64089;51.478;5.692;2024-01-07T11:37:38;1.60;99.90
42833;DHT22;64089;51.478;5.692;2024-01-07T11:40:06;1.70;99.90
42833;DHT22;64089;51.478;5.692;2024-01-07T11:42:32;1.70;99.90
42833;DHT22;64089;51.478;5.692;2024-01-07T11:44:58;1.60;99.90
42833;DHT22;64089;51.478;5.692;2024-01-07T11:47:24;1.70;99.90
42833;DHT22;64089;51.478;5.692;2024-01-07T11:49:53;1.70;99.90
42833;DHT22;64089;51.478;5.692;2024-01-07T11:52:19;1.70;99.90
42833;DHT22;64089;51.478;5.692;2024-01-07T11:54:45;1.70;99.90
42833;DHT22;64089;51.478;5.692;2024-01-07T11:57:13;1.60;99.90
42833;DHT22;64089;51.478;5.692;2024-01-07T11:59:38;1.60;99.90
42833;DHT22;64089;51.478;5.692;2024-01-07T12:02:04;1.60;99.90
42833;DHT22;64089;51.478;5.692;2024-01-07T12:04:32;1.70;99.90
42833;DHT22;64089;51.478;5.692;2024-01-07T12:06:57;1.60;99.90
42833;DHT22;64089;51.478;5.692;2024-01-07T12:09:24;1.70;99.90
42833;DHT22;64089;51.478;5.692;2024-01-07T12:11:50;1.80;99.90
42833;DHT22;64089;51.478;5.692;2024-01-07T12:14:16;1.80;99.90
42833;DHT22;64089;51.478;5.692;2024-01-07T12:16:42;1.90;99.90
42833;DHT22;64089;51.478;5.692;2024-01-07T12:19:08;1.90;99.90
42833;DHT22;64089;51.478;5.692;2024-01-07T12:21:35;1.90;99.90
42833;DHT22;64089;51.478;5.692;2024-01-07T12:24:01;1.80;99.90
42833;DHT22;64089;51.478;5.692;2024-01-07T12:26:27;1.80;99.90
42833;DHT22;64089;51.478;5.692;2024-01-07T12:28:59;1.80;99.90
42833;DHT22;64089;51.478;5.692;2024-01-07T12:31:33;1.80;99.90
42833;DHT22;64089;51.478;5.692;2024-01-07T12:33:59;1.70;99.90
42833;DHT22;64089;51.478;5.692;2024-01-07T12:36:25;1.80;99.90
42833;DHT22;64089;51.478;5.692;2024-01-07T12:38:52;1.80;99.90
42833;DHT22;64089;51.478;5.692;2024-01-07T12:41:20;1.70;99.90
42833;DHT22;64089;51.478;5.692;2024-01-07T12:43:45;1.70;99.90
42833;DHT22;64089;51.478;5.692;2024-01-07T12:46:11;1.70;99.90
42833;DHT22;64089;51.478;5.692;2024-01-07T12:48:36;1.80;99.90
42833;DHT22;64089;51.478;5.692;2024-01-07T12:51:02;1.70;99.90
42833;DHT22;64089;51.478;5.692;2024-01-07T12:53:28;1.70;99.90
42833;DHT22;64089;51.478;5.692;2024-01-07T12:55:54;1.80;99.90
42833;DHT22;64089;51.478;5.692;2024-01-07T12:58:20;1.90;99.90
42833;DHT22;64089;51.478;5.692;2024-01-07T13:00:46;1.90;99.90
42833;DHT22;64089;51.478;5.692;2024-01-07T13:03:12;2.00;99.90
42833;DHT22;64089;51.478;5.692;2024-01-07T13:05:47;2.00;99.90
42833;DHT22;64089;51.478;5.692;2024-01-07T13:08:15;2.00;99.90
42833;DHT22;64089;51.478;5.692;2024-01-07T13:10:44;1.90;99.90
42833;DHT22;64089;51.478;5.692;2024-01-07T13:13:10;1.90;99.90
42833;DHT22;64089;51.478;5.692;2024-01-07T13:15:36;1.80;99.90
42833;DHT22;64089;51.478;5.692;2024-01-07T13:18:02;1.80;99.90
42833;DHT22;64089;51.478;5.692;2024-01-07T13:20:28;1.70;99.90
42833;DHT22;64089;51.478;5.692;2024-01-07T13:22:53;1.70;99.90
42833;DHT22;64089;51.478;5.692;2024-01-07T13:25:19;1.60;99.90
42833;DHT22;64089;51.478;5.692;2024-01-07T13:27:44;1.60;99.90
42833;DHT22;64089;51.478;5.692;2024-01-07T13:30:10;1.60;99.90
42833;DHT22;64089;51.478;5.692;2024-01-07T13:32:36;1.80;99.90
42833;DHT22;64089;51.478;5.692;2024-01-07T13:35:03;2.00;99.90
42833;DHT22;64089;51.478;5.692;2024-01-07T13:37:29;2.20;99.90
42833;DHT22;64089;51.478;5.692;2024-01-07T13:39:56;2.20;99.90
42833;DHT22;64089;51.478;5.692;2024-01-07T13:42:21;2.20;99.90
42833;DHT22;64089;51.478;5.692;2024-01-07T13:44:47;2.10;99.90
42833;DHT22;64089;51.478;5.692;2024-01-07T13:47:13;2.00;99.90
42833;DHT22;64089;51.478;5.692;2024-01-07T13:49:42;2.00;99.90
42833;DHT22;64089;51.478;5.692;2024-01-07T13:52:10;2.00;99.90
42833;DHT22;64089;51.478;5.692;2024-01-07T13:54:36;1.90;99.90
42833;DHT22;64089;51.478;5.692;2024-01-07T13:57:03;1.90;99.90
42833;DHT22;64089;51.478;5.692;2024-01-07T13:59:28;1.80;99.90
42833;DHT22;64089;51.478;5.692;2024-01-07T14:01:54;1.80;99.90
42833;DHT22;64089;51.478;5.692;2024-01-07T14:04:20;1.80;99.90
42833;DHT22;64089;51.478;5.692;2024-01-07T14:06:45;1.70;99.90
42833;DHT22;64089;51.478;5.692;2024-01-07T14:09:12;1.70;99.90
42833;DHT22;64089;51.478;5.692;2024-01-07T14:11:38;1.60;99.90
42833;DHT22;64089;51.478;5.692;2024-01-07T14:14:03;1.50;99.90
42833;DHT22;64089;51.478;5.692;2024-01-07T14:16:29;1.30;99.90
42833;DHT22;64089;51.478;5.692;2024-01-07T14:18:54;1.30;99.90
42833;DHT22;64089;51.478;5.692;2024-01-07T14:21:20;1.40;99.90
42833;DHT22;64089;51.478;5.692;2024-01-07T14:23:47;1.40;99.90
42833;DHT22;64089;51.478;5.692;2024-01-07T14:26:13;1.50;99.90
42833;DHT22;64089;51.478;5.692;2024-01-07T14:28:38;1.40;99.90
42833;DHT22;64089;51.478;5.692;2024-01-07T14:31:04;1.30;99.90
42833;DHT22;64089;51.478;5.692;2024-01-07T14:33:30;1.30;99.90
42833;DHT22;64089;51.478;5.692;2024-01-07T14:35:55;1.30;99.90
42833;DHT22;64089;51.478;5.692;2024-01-07T14:38:21;1.30;99.90
42833;DHT22;64089;51.478;5.692;2024-01-07T14:40:48;1.30;99.90
42833;DHT22;64089;51.478;5.692;2024-01-07T14:43:13;1.20;99.90
42833;DHT22;64089;51.478;5.692;2024-01-07T14:45:39;1.20;99.90
42833;DHT22;64089;51.478;5.692;2024-01-07T14:48:05;1.20;99.90
42833;DHT22;64089;51.478;5.692;2024-01-07T14:50:31;1.20;99.90
42833;DHT22;64089;51.478;5.692;2024-01-07T14:52:57;1.20;99.90
42833;DHT22;64089;51.478;5.692;2024-01-07T14:55:23;1.20;99.90
42833;DHT22;64089;51.478;5.692;2024-01-07T14:57:49;1.20;99.90
42833;DHT22;64089;51.478;5.692;2024-01-07T15:00:15;1.20;99.90
42833;DHT22;64089;51.478;5.692;2024-01-07T15:02:40;1.20;99.90
42833;DHT22;64089;51.478;5.692;2024-01-07T15:05:06;1.20;99.90
42833;DHT22;64089;51.478;5.692;2024-01-07T15:07:32;1.20;99.90
42833;DHT22;64089;51.478;5.692;2024-01-07T15:09:57;1.20;99.90
42833;DHT22;64089;51.478;5.692;2024-01-07T15:12:25;1.10;99.90
42833;DHT22;64089;51.478;5.692;2024-01-07T15:14:51;1.10;99.90
42833;DHT22;64089;51.478;5.692;2024-01-07T15:17:16;1.10;99.90
42833;DHT22;64089;51.478;5.692;2024-01-07T15:19:44;1.00;99.90
42833;DHT22;64089;51.478;5.692;2024-01-07T15:22:11;1.00;99.90
42833;DHT22;64089;51.478;5.692;2024-01-07T15:24:36;1.00;99.90
42833;DHT22;64089;51.478;5.692;2024-01-07T15:27:02;1.00;99.90
42833;DHT22;64089;51.478;5.692;2024-01-07T15:29:28;1.00;99.90
42833;DHT22;64089;51.478;5.692;2024-01-07T15:31:53;0.90;99.90
42833;DHT22;64089;51.478;5.692;2024-01-07T15:34:19;0.80;99.90
42833;DHT22;64089;51.478;5.692;2024-01-07T15:36:44;0.80;99.90
42833;DHT22;64089;51.478;5.692;2024-01-07T15:39:10;0.80;99.90
42833;DHT22;64089;51.478;5.692;2024-01-07T15:41:36;0.80;99.90
42833;DHT22;64089;51.478;5.692;2024-01-07T15:44:01;0.70;99.90